Time;durP1;ratioP1;P1;durP2;ratioP2;P2;SDS_P1;SDS_P2;PMS_P1;PMS_P2;Temp;Humidity;BMP_temperature;BMP_pressure;BME280_temperature;BME280_humidity;BME280_pressure;Samples;Min_cycle;Max_cycle;Signal;HPM_P1;HPM_P2
2021/03/22 00:00:47;;;;;;;3.30;3.07;;;;;;;0.91;89.74;96820.22;4996095;28;20293;-91
2021/03/22 00:03:16;;;;;;;5.57;4.73;;;;;;;0.81;89.82;96811.31;4996651;28;20226;-92
2021/03/22 00:05:44;;;;;;;10.17;7.37;;;;;;;0.82;89.82;96812.97;4994812;28;20231;-92
2021/03/22 00:08:11;;;;;;;3.67;3.37;;;;;;;0.78;89.85;96808.88;4996105;28;20280;-92
2021/03/22 00:10:43;;;;;;;4.17;3.70;;;;;;;0.83;89.81;96814.63;4996322;28;20636;-91
2021/03/22 00:13:11;;;;;;;4.70;4.30;;;;;;;0.75;89.87;96822.00;4995634;28;20223;-92
2021/03/22 00:15:38;;;;;;;8.60;7.23;;;;;;;0.91;89.78;96815.88;4995902;28;20224;-91
2021/03/22 00:18:07;;;;;;;3.60;3.30;;;;;;;0.93;89.79;96834.72;4995617;28;20200;-92
2021/03/22 00:20:35;;;;;;;8.87;6.80;;;;;;;0.97;89.79;96819.91;4995583;28;20196;-91
2021/03/22 00:23:02;;;;;;;4.30;3.90;;;;;;;0.95;89.83;96835.50;4995834;28;20196;-92
2021/03/22 00:25:29;;;;;;;4.10;3.70;;;;;;;0.89;89.91;96816.88;4995753;28;20239;-91
2021/03/22 00:27:56;;;;;;;3.20;2.97;;;;;;;0.93;89.87;96811.44;4995850;28;20204;-91
2021/03/22 00:30:26;;;;;;;4.73;4.17;;;;;;;1.01;89.84;96817.97;4995349;28;20265;-92
2021/03/22 00:32:53;;;;;;;4.10;3.30;;;;;;;0.99;89.88;96820.63;4995487;28;20199;-91
2021/03/22 00:35:20;;;;;;;6.00;5.03;;;;;;;0.97;89.91;96821.63;4995425;28;20672;-92
2021/03/22 00:37:49;;;;;;;4.30;3.90;;;;;;;0.96;89.91;96820.78;4995513;28;20310;-93
2021/03/22 00:40:17;;;;;;;4.60;3.97;;;;;;;0.98;89.94;96816.38;4995298;28;20196;-92
2021/03/22 00:42:44;;;;;;;3.77;3.47;;;;;;;1.00;89.94;96801.56;4995385;28;20735;-93
2021/03/22 00:45:13;;;;;;;5.17;4.67;;;;;;;0.97;89.98;96801.78;4995073;28;20707;-93
2021/03/22 00:47:40;;;;;;;3.70;3.40;;;;;;;1.06;89.96;96797.81;4995191;28;20196;-93
2021/03/22 00:50:10;;;;;;;5.67;5.07;;;;;;;0.91;90.07;96774.47;4995027;28;20196;-93
2021/03/22 00:52:37;;;;;;;4.10;3.70;;;;;;;0.87;90.10;96751.44;4995074;28;20258;-93
2021/03/22 00:55:06;;;;;;;4.83;4.03;;;;;;;0.81;90.14;96731.09;4994366;28;20341;-92
2021/03/22 00:57:33;;;;;;;4.37;3.97;;;;;;;0.84;90.10;96721.41;4995163;28;20205;-92
2021/03/22 01:00:00;;;;;;;6.00;4.90;;;;;;;0.84;90.09;96720.56;4994880;28;20256;-91
2021/03/22 01:02:27;;;;;;;5.97;5.37;;;;;;;0.77;90.13;96720.09;4995088;28;20278;-92
2021/03/22 01:04:54;;;;;;;4.20;3.80;;;;;;;0.74;90.15;96706.50;4994651;28;20199;-92
2021/03/22 01:07:20;;;;;;;4.70;4.30;;;;;;;0.84;90.04;96699.88;4995495;28;20203;-93
2021/03/22 01:09:47;;;;;;;5.50;4.53;;;;;;;0.84;90.04;96692.09;4994676;28;20227;-92
2021/03/22 01:12:15;;;;;;;3.67;3.37;;;;;;;0.90;89.99;96678.78;4995178;28;20203;-92
2021/03/22 01:14:42;;;;;;;4.33;3.87;;;;;;;0.89;89.99;96692.66;4994652;28;20270;-93
2021/03/22 01:17:09;;;;;;;3.47;3.17;;;;;;;1.01;89.92;96704.06;4994518;28;20290;-92
2021/03/22 01:19:36;;;;;;;2.83;2.63;;;;;;;1.03;89.97;96728.94;4994439;28;20752;-93
2021/03/22 01:22:04;;;;;;;4.27;3.70;;;;;;;1.11;89.95;96757.81;4994505;28;20283;-92
2021/03/22 01:24:32;;;;;;;3.33;3.03;;;;;;;1.05;90.02;96740.03;4994514;28;20876;-92
2021/03/22 01:27:03;;;;;;;4.43;4.03;;;;;;;0.98;90.09;96753.44;4994586;28;20260;-93
2021/03/22 01:29:34;;;;;;;6.50;5.47;;;;;;;1.01;90.07;96750.66;4994630;28;20630;-93
2021/03/22 01:32:01;;;;;;;6.60;6.00;;;;;;;1.09;90.05;96735.50;4994221;28;20187;-92
2021/03/22 01:34:30;;;;;;;5.33;4.83;;;;;;;1.15;90.02;96748.09;4994172;28;20283;-92
2021/03/22 01:36:58;;;;;;;3.10;2.87;;;;;;;1.14;90.05;96749.00;4994586;28;20200;-92
2021/03/22 01:39:29;;;;;;;3.30;3.00;;;;;;;1.13;90.12;96742.19;4994310;28;20219;-91
2021/03/22 01:42:22;;;;;;;4.50;4.10;;;;;;;1.10;90.18;96737.16;4994083;28;20284;-92
2021/03/22 01:44:55;;;;;;;4.40;4.00;;;;;;;1.11;90.21;96725.88;4994200;28;20188;-91
2021/03/22 01:47:24;;;;;;;6.30;5.70;;;;;;;1.04;90.27;96725.44;4994202;28;20223;-91
2021/03/22 01:49:54;;;;;;;3.97;3.60;;;;;;;1.08;90.28;96716.56;4994117;28;20684;-92
2021/03/22 01:52:21;;;;;;;5.93;4.67;;;;;;;1.10;90.29;96717.28;4993847;28;20287;-92
2021/03/22 01:54:48;;;;;;;3.43;3.13;;;;;;;1.10;90.32;96735.41;4993659;28;20274;-91
2021/03/22 01:57:37;;;;;;;4.80;4.33;;;;;;;1.07;90.38;96737.34;4994185;28;20223;-91
2021/03/22 02:00:13;;;;;;;5.60;5.00;;;;;;;1.03;90.43;96757.41;4988504;28;20247;-92
2021/03/22 02:02:42;;;;;;;3.67;3.10;;;;;;;1.16;90.36;96776.50;4994023;28;20180;-90
2021/03/22 02:05:13;;;;;;;4.90;4.40;;;;;;;1.13;90.39;96786.19;4994020;28;20660;-91
2021/03/22 02:07:40;;;;;;;5.03;4.53;;;;;;;1.00;90.51;96773.09;4994079;28;20204;-91
2021/03/22 02:10:09;;;;;;;3.27;3.07;;;;;;;1.16;90.41;96794.63;4993660;28;20202;-91
2021/03/22 02:12:36;;;;;;;6.57;5.17;;;;;;;1.14;90.46;96804.25;4993645;28;20208;-90
2021/03/22 02:15:05;;;;;;;5.07;4.57;;;;;;;1.12;90.48;96800.06;4993959;28;20228;-90
2021/03/22 02:17:41;;;;;;;2.53;2.00;;;;;;;1.18;90.45;96799.72;4993834;28;20231;-90
2021/03/22 02:20:41;;;;;;;3.20;2.90;;;;;;;1.15;90.53;96802.47;4993852;28;20231;-90
2021/03/22 02:23:40;;;;;;;7.03;5.23;;;;;;;1.15;90.56;96792.97;4993654;28;20208;-91
2021/03/22 02:26:28;;;;;;;7.97;5.67;;;;;;;1.18;90.58;96795.38;4962664;28;20291;-91
2021/03/22 02:29:13;;;;;;;10.60;7.37;;;;;;;1.10;90.69;96799.31;4993055;28;20184;-91
2021/03/22 02:32:11;;;;;;;4.30;3.90;;;;;;;1.17;90.67;96793.69;4993389;28;20275;-90
2021/03/22 02:34:46;;;;;;;3.10;2.80;;;;;;;1.18;90.67;96802.31;4993511;28;20299;-90
2021/03/22 02:37:46;;;;;;;2.83;2.60;;;;;;;1.18;90.69;96787.59;4993693;28;20664;-90
2021/03/22 02:40:22;;;;;;;6.37;5.77;;;;;;;1.15;90.76;96805.91;4915967;29;20196;-91
2021/03/22 02:42:50;;;;;;;15.93;10.83;;;;;;;1.11;90.80;96799.22;4983038;28;20208;-90
2021/03/22 02:45:23;;;;;;;4.47;3.20;;;;;;;1.17;90.79;96795.44;4994101;28;20196;-90
2021/03/22 02:47:50;;;;;;;7.13;5.33;;;;;;;1.29;90.73;96799.94;4994530;28;20189;-92
2021/03/22 02:50:21;;;;;;;5.73;4.53;;;;;;;1.32;90.72;96830.00;4995160;28;20282;-91
2021/03/22 02:53:32;;;;;;;7.70;5.83;;;;;;;1.39;90.72;96842.50;4994324;28;20228;-91
2021/03/22 02:56:08;;;;;;;8.07;5.23;;;;;;;1.15;90.94;96849.91;4993784;28;20784;-92
2021/03/22 02:58:44;;;;;;;7.10;5.60;;;;;;;1.18;90.94;96856.69;4994028;28;20188;-92
2021/03/22 03:01:17;;;;;;;5.03;4.53;;;;;;;1.28;90.87;96880.28;4994442;28;20319;-92
2021/03/22 03:03:46;;;;;;;5.03;4.53;;;;;;;1.24;90.91;96884.78;4994392;28;20569;-92
2021/03/22 03:06:14;;;;;;;8.10;7.20;;;;;;;1.34;90.85;96892.88;4993189;28;20224;-90
2021/03/22 03:08:41;;;;;;;4.33;3.93;;;;;;;1.31;90.91;96909.44;4993326;28;20287;-91
2021/03/22 03:11:09;;;;;;;16.13;12.90;;;;;;;1.40;90.88;96908.09;4993433;28;20256;-92
2021/03/22 03:13:36;;;;;;;19.57;13.97;;;;;;;1.34;90.95;96898.91;4994038;28;20291;-91
2021/03/22 03:16:04;;;;;;;5.17;4.67;;;;;;;1.35;90.96;96904.91;4993863;28;20668;-91
2021/03/22 03:18:31;;;;;;;3.70;3.40;;;;;;;1.45;90.92;96905.22;4993688;28;20204;-90
2021/03/22 03:20:59;;;;;;;4.50;4.10;;;;;;;1.46;90.95;96906.91;4993683;28;20218;-91
2021/03/22 03:23:28;;;;;;;6.33;5.70;;;;;;;1.30;91.12;96891.41;4993685;28;20203;-91
2021/03/22 03:25:55;;;;;;;12.43;8.57;;;;;;;1.29;91.11;96893.16;4994113;28;20280;-92
2021/03/22 03:28:22;;;;;;;7.23;6.47;;;;;;;1.31;91.13;96893.88;4994730;28;20665;-91
2021/03/22 03:30:49;;;;;;;7.07;5.27;;;;;;;1.41;91.07;96904.56;5002958;28;20196;-90
2021/03/22 03:33:16;;;;;;;4.13;3.73;;;;;;;1.36;91.13;96911.78;5018036;28;20195;-87
2021/03/22 03:35:44;;;;;;;13.30;8.40;;;;;;;1.32;91.17;96900.75;5006579;28;20235;-90
2021/03/22 03:38:12;;;;;;;6.27;4.73;;;;;;;1.34;91.19;96918.78;4994035;28;20204;-91
2021/03/22 03:40:42;;;;;;;6.13;3.67;;;;;;;1.46;91.11;96928.47;4997276;28;20737;-90
2021/03/22 03:43:09;;;;;;;11.80;7.33;;;;;;;1.49;91.15;96930.91;4997367;28;20200;-90
2021/03/22 03:45:39;;;;;;;13.53;8.67;;;;;;;1.45;91.21;96931.97;4997092;28;20287;-89
2021/03/22 03:48:08;;;;;;;6.33;5.70;;;;;;;1.45;91.22;96919.00;4997195;28;20208;-90
2021/03/22 03:50:35;;;;;;;8.07;7.03;;;;;;;1.48;91.23;96944.75;4996953;28;20227;-90
2021/03/22 03:53:02;;;;;;;9.77;7.07;;;;;;;1.55;91.21;96971.16;4996778;28;20235;-90
2021/03/22 03:55:32;;;;;;;22.03;14.20;;;;;;;1.47;91.33;96975.94;4996601;28;20235;-91
2021/03/22 03:58:00;;;;;;;15.60;11.10;;;;;;;1.50;91.34;96975.75;4997137;28;20235;-90
2021/03/22 04:00:30;;;;;;;11.03;7.63;;;;;;;1.47;91.39;96979.34;4997689;28;20195;-90
2021/03/22 04:02:57;;;;;;;16.20;11.00;;;;;;;1.48;91.39;96973.25;4997319;28;20288;-91
2021/03/22 04:05:28;;;;;;;7.87;5.20;;;;;;;1.41;91.49;96971.91;4997220;28;20694;-91
2021/03/22 04:07:55;;;;;;;6.53;4.90;;;;;;;1.49;91.44;96985.28;4997911;28;20641;-91
2021/03/22 04:10:22;;;;;;;3.77;3.20;;;;;;;1.61;91.38;97009.69;4997896;28;20733;-91
2021/03/22 04:12:49;;;;;;;5.30;4.77;;;;;;;1.56;91.47;97025.50;4995922;28;20695;-92
2021/03/22 04:15:17;;;;;;;8.53;5.67;;;;;;;1.61;91.49;97038.19;4995812;28;20314;-91
2021/03/22 04:17:44;;;;;;;10.13;7.80;;;;;;;1.70;91.45;97044.59;4995870;28;20243;-92
2021/03/22 04:20:13;;;;;;;12.13;9.40;;;;;;;1.60;91.62;97044.28;4995724;28;20214;-91
2021/03/22 04:22:40;;;;;;;14.47;10.60;;;;;;;1.59;91.66;97047.78;4996135;28;20298;-92
2021/03/22 04:25:08;;;;;;;17.73;12.80;;;;;;;1.63;91.66;97041.53;4996116;28;20196;-93
2021/03/22 04:27:34;;;;;;;8.43;7.47;;;;;;;1.69;91.67;97037.75;4995797;28;20260;-91
2021/03/22 04:30:01;;;;;;;13.53;7.97;;;;;;;1.56;91.85;97046.22;4980003;28;20201;-89
2021/03/22 04:32:29;;;;;;;5.13;3.77;;;;;;;1.58;91.90;97069.44;4976348;28;20622;-90
2021/03/22 04:34:56;;;;;;;2.90;2.63;;;;;;;1.62;91.93;97079.53;4976005;28;20232;-89
2021/03/22 04:37:33;;;;;;;6.47;4.80;;;;;;;1.55;92.05;97083.38;4976507;28;20197;-89
2021/03/22 04:39:59;;;;;;;2.83;2.33;;;;;;;1.57;92.10;97086.75;4976249;28;20209;-90
2021/03/22 04:42:27;;;;;;;3.43;3.13;;;;;;;1.60;92.18;97104.72;4975781;28;20201;-91
2021/03/22 04:44:54;;;;;;;2.70;2.50;;;;;;;1.65;92.21;97123.44;4975398;28;20193;-90
2021/03/22 04:47:21;;;;;;;2.10;2.00;;;;;;;1.74;92.21;97142.00;4975834;28;20247;-90
2021/03/22 04:49:48;;;;;;;3.60;2.80;;;;;;;1.70;92.36;97151.72;4975273;28;20197;-90
2021/03/22 04:52:15;;;;;;;2.50;2.03;;;;;;;1.71;92.48;97157.72;4975730;28;20232;-90
2021/03/22 04:54:42;;;;;;;2.30;2.10;;;;;;;1.70;92.56;97188.00;4975629;28;20252;-90
2021/03/22 04:57:22;;;;;;;1.93;1.80;;;;;;;1.62;92.75;97205.69;4975561;28;20225;-89
2021/03/22 04:59:49;;;;;;;2.23;1.97;;;;;;;1.26;93.21;97211.03;4975253;28;20280;-89
2021/03/22 05:02:16;;;;;;;1.80;1.70;;;;;;;1.34;93.15;97214.03;4975336;28;20240;-89
2021/03/22 05:04:43;;;;;;;2.20;1.97;;;;;;;1.46;93.07;97208.25;4975742;28;20280;-89
2021/03/22 05:07:12;;;;;;;2.00;1.90;;;;;;;1.45;93.13;97203.97;4975381;28;20197;-89
2021/03/22 05:09:38;;;;;;;2.63;2.20;;;;;;;1.33;93.35;97202.84;4975667;28;20662;-90
2021/03/22 05:12:07;;;;;;;2.37;2.17;;;;;;;1.45;93.31;97200.53;4975194;28;20207;-90
2021/03/22 05:14:34;;;;;;;2.33;2.13;;;;;;;1.43;93.43;97213.59;4975382;28;20224;-90
2021/03/22 05:17:01;;;;;;;4.07;3.77;;;;;;;1.47;93.45;97220.28;4975699;28;20777;-90
2021/03/22 05:19:27;;;;;;;7.33;6.63;;;;;;;1.65;93.35;97231.44;4975111;28;20281;-89
2021/03/22 05:21:55;;;;;;;8.90;7.67;;;;;;;1.66;93.48;97236.56;4975026;28;20205;-89
2021/03/22 05:24:23;;;;;;;5.23;4.83;;;;;;;1.75;93.52;97245.59;4975016;28;20225;-89
2021/03/22 05:26:51;;;;;;;5.27;3.23;;;;;;;1.60;93.81;97264.53;4974997;28;20292;-89
2021/03/22 05:29:19;;;;;;;6.73;5.27;;;;;;;1.54;94.01;97267.44;4974844;28;20200;-90
2021/03/22 05:31:46;;;;;;;9.87;7.70;;;;;;;1.66;93.92;97262.47;4974739;28;20241;-89
2021/03/22 05:34:13;;;;;;;12.57;9.47;;;;;;;1.57;94.15;97257.75;4974724;28;20288;-89
2021/03/22 05:36:40;;;;;;;207.57;127.83;;;;;;;1.61;94.22;97273.97;4975122;28;20319;-88
2021/03/22 05:39:07;;;;;;;319.37;202.77;;;;;;;1.51;94.43;97283.13;4974742;28;20694;-89
2021/03/22 05:41:47;;;;;;;110.27;69.17;;;;;;;1.58;94.38;97280.16;4974800;28;20201;-88
2021/03/22 05:44:21;;;;;;;168.97;92.67;;;;;;;1.49;94.60;97284.94;4975214;28;20288;-89
2021/03/22 05:46:54;;;;;;;33.60;21.93;;;;;;;1.38;94.80;97294.09;4975305;28;20193;-90
2021/03/22 05:49:34;;;;;;;21.93;17.10;;;;;;;1.58;94.62;97298.28;4974830;28;20232;-88
2021/03/22 05:52:33;;;;;;;14.83;12.17;;;;;;;1.52;94.82;97301.19;4974746;28;20280;-88
2021/03/22 05:55:15;;;;;;;13.13;11.20;;;;;;;1.41;95.08;97288.75;4974387;28;20705;-88
2021/03/22 05:57:55;;;;;;;17.03;13.97;;;;;;;1.39;95.20;97302.72;4974721;28;20203;-88
2021/03/22 06:00:38;;;;;;;11.40;10.30;;;;;;;1.15;95.62;97300.44;4974718;28;20264;-88
2021/03/22 06:03:08;;;;;;;6.50;5.83;;;;;;;1.06;95.71;97303.47;4973871;28;20193;-88
2021/03/22 06:05:42;;;;;;;11.60;10.40;;;;;;;1.14;95.58;97306.53;4975081;28;20288;-88
2021/03/22 06:08:23;;;;;;;22.00;16.83;;;;;;;1.32;95.33;97306.53;4974803;28;20272;-88
2021/03/22 06:10:53;;;;;;;9.90;8.37;;;;;;;1.25;95.49;97316.38;4974586;28;20290;-89
2021/03/22 06:13:28;;;;;;;9.03;7.90;;;;;;;1.38;95.41;97332.13;4974643;28;20212;-89
2021/03/22 06:15:59;;;;;;;7.37;6.37;;;;;;;1.30;95.58;97319.56;4974596;28;20212;-88
2021/03/22 06:18:32;;;;;;;15.57;13.53;;;;;;;1.30;95.66;97316.13;4974759;28;20248;-89
2021/03/22 06:21:04;;;;;;;11.13;9.57;;;;;;;1.36;95.63;97327.03;4974506;28;20249;-88
2021/03/22 06:23:37;;;;;;;9.20;8.13;;;;;;;1.51;95.54;97332.34;4974199;28;20741;-90
2021/03/22 06:26:04;;;;;;;7.23;6.23;;;;;;;1.63;95.46;97340.38;4975288;28;20321;-90
2021/03/22 06:28:38;;;;;;;6.40;5.77;;;;;;;1.54;95.78;97350.34;4974435;28;20231;-88
2021/03/22 06:31:08;;;;;;;100.23;51.87;;;;;;;1.71;95.65;97352.94;4974056;28;20190;-89
2021/03/22 06:33:39;;;;;;;44.00;26.40;;;;;;;1.73;95.77;97352.84;4974122;28;20200;-88
2021/03/22 06:36:08;;;;;;;38.43;23.40;;;;;;;1.82;95.89;97367.94;4973911;28;20244;-88
2021/03/22 06:38:35;;;;;;;15.43;11.37;;;;;;;1.72;96.28;97375.34;4974011;28;20773;-88
2021/03/22 06:41:29;;;;;;;11.27;9.60;;;;;;;1.78;96.39;97369.00;4974209;28;20236;-88
2021/03/22 06:43:59;;;;;;;9.80;8.40;;;;;;;1.71;96.74;97386.63;4973972;28;20661;-88
2021/03/22 06:46:27;;;;;;;8.97;7.40;;;;;;;1.70;96.93;97397.03;4973971;28;20201;-88
2021/03/22 06:48:58;;;;;;;8.07;6.10;;;;;;;1.84;96.85;97405.00;4974070;28;20201;-88
2021/03/22 06:51:25;;;;;;;11.60;8.07;;;;;;;1.54;97.63;97404.75;4974035;28;20201;-88
2021/03/22 06:53:55;;;;;;;18.73;16.03;;;;;;;1.60;97.68;97423.44;4973738;28;20201;-88
2021/03/22 06:56:26;;;;;;;13.30;11.40;;;;;;;1.29;98.36;97420.66;4973927;28;20351;-88
2021/03/22 06:59:10;;;;;;;7.23;6.53;;;;;;;1.50;97.93;97411.84;4973683;28;20190;-87
2021/03/22 07:01:37;;;;;;;11.80;10.47;;;;;;;1.74;97.55;97430.53;4974063;28;20276;-88
2021/03/22 07:04:27;;;;;;;13.33;11.93;;;;;;;1.81;97.68;97425.88;4973936;28;20201;-88
2021/03/22 07:07:16;;;;;;;9.83;6.97;;;;;;;1.89;97.85;97441.88;4973915;28;20197;-88
2021/03/22 07:09:46;;;;;;;4.03;3.27;;;;;;;1.44;99.03;97451.00;4970920;28;20280;-87
2021/03/22 07:12:32;;;;;;;7.93;6.43;;;;;;;1.47;98.98;97439.66;4973881;28;20232;-87
2021/03/22 07:15:22;;;;;;;9.50;8.60;;;;;;;1.63;98.75;97443.19;4976685;28;20646;-87
2021/03/22 07:18:11;;;;;;;4.70;4.00;;;;;;;1.41;99.45;97438.19;4977645;28;20190;-88
2021/03/22 07:20:39;;;;;;;4.43;4.03;;;;;;;1.38;99.49;97438.31;4977299;28;20189;-87
2021/03/22 07:23:39;;;;;;;4.20;3.80;;;;;;;1.63;98.95;97444.03;4977149;28;20247;-87
2021/03/22 07:26:12;;;;;;;2.50;2.33;;;;;;;1.54;99.24;97441.88;4977270;28;20221;-86
2021/03/22 07:28:50;;;;;;;3.27;3.00;;;;;;;1.74;98.99;97471.16;4977254;28;20232;-88
2021/03/22 07:31:30;;;;;;;4.33;3.93;;;;;;;1.33;100.00;97446.31;4976551;28;20201;-87
2021/03/22 07:34:11;;;;;;;4.47;4.07;;;;;;;1.45;99.92;97441.47;4976992;28;20224;-88
2021/03/22 07:36:45;;;;;;;12.53;10.67;;;;;;;1.76;99.39;97433.88;4976882;28;20248;-87
2021/03/22 07:39:35;;;;;;;59.27;48.03;;;;;;;1.81;99.58;97454.41;4977109;28;20685;-87
2021/03/22 07:42:24;;;;;;;17.37;13.67;;;;;;;1.67;100.00;97466.28;4966880;28;20236;-87
2021/03/22 07:45:30;;;;;;;10.73;9.63;;;;;;;1.59;100.00;97463.22;4976939;28;20658;-88
2021/03/22 07:48:27;;;;;;;26.13;10.37;;;;;;;1.57;100.00;97454.69;4965589;28;20738;-88
2021/03/22 07:51:02;;;;;;;31.77;21.33;;;;;;;1.70;100.00;97448.88;4963975;28;20232;-88
2021/03/22 07:53:38;;;;;;;49.40;29.40;;;;;;;1.86;100.00;97467.97;4977354;28;20557;-87
2021/03/22 07:56:15;;;;;;;17.33;11.00;;;;;;;1.76;100.00;97474.50;4976465;28;20248;-88
2021/03/22 07:59:00;;;;;;;10.93;9.40;;;;;;;1.94;100.00;97480.53;4976579;28;20672;-88
2021/03/22 08:01:40;;;;;;;5.53;4.43;;;;;;;1.75;100.00;97473.69;4976384;28;20284;-88
2021/03/22 08:04:42;;;;;;;3.97;3.37;;;;;;;1.78;100.00;97464.91;4976822;28;20683;-88
2021/03/22 08:07:34;;;;;;;6.53;5.60;;;;;;;1.83;100.00;97483.66;4976443;28;20185;-88
2021/03/22 08:10:23;;;;;;;3.40;2.40;;;;;;;1.63;100.00;97469.94;4976304;28;20197;-89
2021/03/22 08:12:56;;;;;;;5.27;4.03;;;;;;;1.73;100.00;97475.50;4976759;28;20224;-87
2021/03/22 08:15:30;;;;;;;5.33;4.83;;;;;;;1.75;100.00;97475.44;4976559;28;20248;-87
2021/03/22 08:18:09;;;;;;;7.27;6.43;;;;;;;1.78;100.00;97480.47;4976390;28;20192;-87
2021/03/22 08:20:53;;;;;;;3.20;2.90;;;;;;;1.92;100.00;97477.19;4976499;28;20243;-87
2021/03/22 08:23:28;;;;;;;1.77;1.63;;;;;;;1.65;100.00;97468.09;4976329;28;20296;-87
2021/03/22 08:25:58;;;;;;;2.40;1.43;;;;;;;1.68;100.00;97461.94;4975124;28;20216;-88
2021/03/22 08:28:30;;;;;;;1.63;1.53;;;;;;;1.94;100.00;97467.56;4976354;28;20200;-88
2021/03/22 08:31:04;;;;;;;1.97;1.77;;;;;;;2.11;100.00;97470.16;4976043;28;20253;-88
2021/03/22 08:33:36;;;;;;;3.57;3.27;;;;;;;2.16;100.00;97477.75;4976058;28;20217;-88
2021/03/22 08:36:16;;;;;;;5.57;5.03;;;;;;;1.99;100.00;97474.22;4975672;28;20209;-88
2021/03/22 08:38:46;;;;;;;2.60;2.40;;;;;;;2.12;100.00;97484.84;4975976;28;20204;-88
2021/03/22 08:41:30;;;;;;;4.63;3.83;;;;;;;2.17;100.00;97487.19;4975764;28;20280;-88
2021/03/22 08:44:06;;;;;;;3.90;3.60;;;;;;;2.31;100.00;97495.94;4975827;28;20225;-88
2021/03/22 08:46:38;;;;;;;2.63;2.40;;;;;;;2.34;100.00;97498.38;4976277;28;20264;-88
2021/03/22 08:49:19;;;;;;;3.10;2.80;;;;;;;2.28;100.00;97493.50;4977108;28;20628;-89
2021/03/22 08:51:48;;;;;;;2.83;1.60;;;;;;;2.32;100.00;97500.25;4976483;28;20565;-88
2021/03/22 08:54:29;;;;;;;2.83;2.40;;;;;;;2.24;100.00;97491.16;4976080;28;20211;-89
2021/03/22 08:57:06;;;;;;;1.43;1.23;;;;;;;2.31;100.00;97493.34;4938257;29;20218;-88
2021/03/22 08:59:33;;;;;;;2.53;1.90;;;;;;;2.38;100.00;97496.47;4937626;29;20258;-89
2021/03/22 09:02:25;;;;;;;2.03;1.83;;;;;;;2.55;100.00;97496.44;4937541;29;20198;-89
2021/03/22 09:04:53;;;;;;;2.60;2.10;;;;;;;2.59;100.00;97497.97;4938096;29;20278;-89
2021/03/22 09:07:32;;;;;;;2.17;1.90;;;;;;;2.45;100.00;97517.75;4937897;29;20207;-88
2021/03/22 09:10:29;;;;;;;1.07;0.97;;;;;;;2.47;100.00;97513.34;4938136;29;20250;-88
2021/03/22 09:13:14;;;;;;;1.50;1.40;;;;;;;2.48;100.00;97507.22;4940122;29;20201;-90
2021/03/22 09:15:57;;;;;;;3.87;3.30;;;;;;;2.52;100.00;97522.56;4939220;29;20301;-90
2021/03/22 09:18:24;;;;;;;3.27;2.67;;;;;;;2.53;100.00;97533.78;4937955;29;20187;-89
2021/03/22 09:21:19;;;;;;;6.13;5.10;;;;;;;2.41;100.00;97524.03;4938111;29;20210;-89
2021/03/22 09:23:48;;;;;;;1.40;1.30;;;;;;;2.47;100.00;97526.31;4938989;29;20218;-89
2021/03/22 09:26:16;;;;;;;2.07;1.83;;;;;;;2.54;100.00;97543.25;4940051;29;20266;-88
2021/03/22 09:28:59;;;;;;;3.70;3.13;;;;;;;2.60;100.00;97545.56;4938861;29;20250;-89
2021/03/22 09:31:41;;;;;;;6.27;5.43;;;;;;;2.65;100.00;97542.72;4939079;29;20210;-89
2021/03/22 09:34:41;;;;;;;20.37;13.93;;;;;;;2.78;100.00;97538.56;4937652;29;20676;-89
2021/03/22 09:37:40;;;;;;;3.50;3.10;;;;;;;2.71;100.00;97526.81;4936721;29;20223;-89
2021/03/22 09:40:11;;;;;;;2.17;1.93;;;;;;;2.77;100.00;97535.13;4936586;29;20301;-89
2021/03/22 09:42:38;;;;;;;4.60;3.40;;;;;;;2.74;100.00;97537.06;4937289;29;20191;-88
2021/03/22 09:45:21;;;;;;;4.97;3.90;;;;;;;2.75;100.00;97542.16;4937094;29;20238;-89
2021/03/22 09:48:21;;;;;;;6.63;6.03;;;;;;;2.83;100.00;97532.19;4936880;29;20191;-89
2021/03/22 09:50:50;;;;;;;2.60;2.40;;;;;;;2.86;100.00;97541.59;4936623;29;20222;-89
2021/03/22 09:53:24;;;;;;;3.47;2.50;;;;;;;2.85;100.00;97538.16;4936626;29;20294;-90
2021/03/22 09:56:26;;;;;;;1.90;1.70;;;;;;;2.83;100.00;97534.78;4960011;28;20327;-89
2021/03/22 09:58:53;;;;;;;1.30;1.20;;;;;;;2.95;100.00;97538.53;4975060;28;20613;-89
2021/03/22 10:01:41;;;;;;;1.60;1.50;;;;;;;2.89;100.00;97532.81;4975080;28;20216;-90
2021/03/22 10:04:31;;;;;;;1.00;1.00;;;;;;;2.97;100.00;97541.88;4975100;28;20332;-89
2021/03/22 10:07:10;;;;;;;1.40;1.30;;;;;;;2.90;100.00;97553.50;4974610;28;20189;-89
2021/03/22 10:09:42;;;;;;;1.37;1.27;;;;;;;2.79;100.00;97543.66;4974908;28;20661;-90
2021/03/22 10:12:16;;;;;;;1.37;1.27;;;;;;;2.94;100.00;97551.56;4974314;28;20193;-89
2021/03/22 10:14:46;;;;;;;2.03;1.93;;;;;;;3.01;100.00;97569.38;4974552;28;20189;-89
2021/03/22 10:17:31;;;;;;;1.83;1.60;;;;;;;3.02;100.00;97571.06;4974772;28;20231;-90
2021/03/22 10:20:04;;;;;;;2.20;2.00;;;;;;;3.07;100.00;97591.59;4973738;28;20264;-90
2021/03/22 10:22:32;;;;;;;5.40;4.10;;;;;;;3.01;100.00;97591.91;4974157;28;20216;-89
2021/03/22 10:25:09;;;;;;;8.50;6.40;;;;;;;3.16;100.00;97600.66;4974161;28;20197;-89
2021/03/22 10:27:40;;;;;;;5.97;5.20;;;;;;;2.95;100.00;97590.47;4974136;28;20189;-89
2021/03/22 10:30:16;;;;;;;8.13;6.80;;;;;;;2.95;100.00;97595.66;4974105;28;20192;-89
2021/03/22 10:32:49;;;;;;;4.33;3.30;;;;;;;2.78;100.00;97595.69;4973976;28;20196;-89
2021/03/22 10:35:18;;;;;;;6.80;6.10;;;;;;;2.83;100.00;97593.69;4974418;28;20689;-89
2021/03/22 10:37:47;;;;;;;5.30;4.80;;;;;;;3.00;100.00;97598.84;4974037;28;20737;-89
2021/03/22 10:40:24;;;;;;;5.83;4.27;;;;;;;3.01;100.00;97602.28;4974296;28;20566;-89
2021/03/22 10:42:53;;;;;;;3.20;2.90;;;;;;;2.83;100.00;97604.06;4974078;28;20288;-89
2021/03/22 10:45:37;;;;;;;5.30;4.63;;;;;;;2.88;100.00;97591.72;4974371;28;20205;-89
2021/03/22 10:48:20;;;;;;;6.60;5.60;;;;;;;2.80;100.00;97586.88;4974277;28;20268;-89
2021/03/22 10:50:47;;;;;;;5.37;4.47;;;;;;;2.89;100.00;97600.34;4978181;28;20603;-90
2021/03/22 10:53:16;;;;;;;35.97;28.43;;;;;;;2.88;100.00;97602.09;4978038;28;20619;-90
2021/03/22 10:55:45;;;;;;;10.83;8.77;;;;;;;2.83;100.00;97594.53;4977650;28;20275;-90
2021/03/22 10:58:22;;;;;;;20.57;14.67;;;;;;;2.94;100.00;97596.56;4977673;28;20240;-90
2021/03/22 11:00:49;;;;;;;16.30;12.70;;;;;;;2.99;100.00;97586.78;4977604;28;20189;-89
2021/03/22 11:03:20;;;;;;;18.63;15.40;;;;;;;3.02;100.00;97584.03;4977535;28;20288;-89
2021/03/22 11:05:48;;;;;;;25.63;20.37;;;;;;;3.06;100.00;97576.94;4977976;28;20213;-89
2021/03/22 11:08:24;;;;;;;15.80;12.33;;;;;;;3.15;100.00;97567.78;4977486;28;20236;-89
2021/03/22 11:10:58;;;;;;;10.67;9.57;;;;;;;3.17;100.00;97571.16;4977803;28;20660;-89
2021/03/22 11:13:29;;;;;;;8.20;6.33;;;;;;;3.20;100.00;97566.66;4978114;28;20194;-89
2021/03/22 11:15:56;;;;;;;4.43;4.03;;;;;;;3.16;100.00;97567.72;4977577;28;20209;-90
2021/03/22 11:18:25;;;;;;;5.03;4.60;;;;;;;3.16;100.00;97564.31;4977302;28;20247;-90
2021/03/22 11:20:56;;;;;;;6.53;5.87;;;;;;;3.42;100.00;97566.31;4977520;28;20631;-90
2021/03/22 11:23:26;;;;;;;6.03;5.43;;;;;;;3.60;100.00;97561.06;4978052;28;20283;-90
2021/03/22 11:25:54;;;;;;;7.43;6.73;;;;;;;3.69;100.00;97557.97;4978774;28;20292;-90
2021/03/22 11:28:31;;;;;;;8.67;7.67;;;;;;;3.71;100.00;97550.94;4978022;28;20201;-90
2021/03/22 11:31:04;;;;;;;8.70;7.80;;;;;;;3.61;100.00;97555.78;4978647;28;20271;-89
2021/03/22 11:33:38;;;;;;;9.13;8.23;;;;;;;3.64;100.00;97554.75;4978115;28;20189;-90
2021/03/22 11:36:13;;;;;;;4.60;4.13;;;;;;;3.51;100.00;97552.84;4978092;28;20247;-90
2021/03/22 11:38:53;;;;;;;6.53;5.87;;;;;;;3.44;100.00;97561.06;4978391;28;20193;-90
2021/03/22 11:41:28;;;;;;;7.00;5.90;;;;;;;3.65;100.00;97572.06;4978596;28;20233;-90
2021/03/22 11:44:18;;;;;;;4.67;4.17;;;;;;;3.65;100.00;97557.28;4978094;28;20189;-89
2021/03/22 11:46:52;;;;;;;4.07;3.77;;;;;;;3.56;100.00;97547.38;4978022;28;20223;-90
2021/03/22 11:49:42;;;;;;;4.67;4.27;;;;;;;3.58;100.00;97536.00;4979388;28;20195;-89
2021/03/22 11:52:21;;;;;;;4.70;4.30;;;;;;;3.70;100.00;97531.03;4981616;28;20196;-90
2021/03/22 11:54:54;;;;;;;4.83;4.43;;;;;;;3.72;100.00;97547.38;4981039;28;20243;-89
2021/03/22 11:57:24;;;;;;;4.20;3.77;;;;;;;3.67;100.00;97545.06;4978499;28;20224;-89
2021/03/22 11:59:57;;;;;;;6.17;5.57;;;;;;;3.63;100.00;97551.31;4978385;28;20633;-90
2021/03/22 12:02:32;;;;;;;7.60;6.70;;;;;;;3.73;100.00;97559.47;4977886;28;20221;-89
2021/03/22 12:05:01;;;;;;;4.10;3.70;;;;;;;3.76;100.00;97567.09;4978184;28;20208;-89
2021/03/22 12:07:44;;;;;;;5.07;4.57;;;;;;;3.63;100.00;97576.47;4978215;28;20204;-89